createdAt,value
2023-03-05T00:00:57.789Z,7.30
2023-03-05T00:01:57.784Z,7.30
2023-03-05T00:02:57.858Z,6.50
2023-03-05T00:03:58.802Z,6.80
2023-03-05T00:04:57.876Z,6.50
2023-03-05T00:05:58.577Z,5.70
2023-03-05T00:06:57.779Z,7.20
2023-03-05T00:07:59.201Z,8.30
2023-03-05T00:08:57.870Z,5.60
2023-03-05T00:09:58.624Z,8.00
2023-03-05T00:10:58.660Z,9.40
2023-03-05T00:11:58.129Z,8.90
2023-03-05T00:12:58.988Z,12.40
2023-03-05T00:13:58.294Z,14.00
2023-03-05T00:14:58.560Z,16.40
2023-03-05T00:15:58.217Z,15.10
2023-03-05T00:16:58.563Z,10.60
2023-03-05T00:17:57.886Z,8.80
2023-03-05T00:18:58.448Z,11.40
2023-03-05T00:19:58.163Z,10.70
2023-03-05T00:20:58.446Z,11.20
2023-03-05T00:21:58.354Z,10.80
2023-03-05T00:22:57.636Z,12.30
2023-03-05T00:23:59.057Z,15.10
2023-03-05T00:24:57.549Z,16.60
2023-03-05T00:25:57.720Z,20.00
2023-03-05T00:26:57.525Z,18.30
2023-03-05T00:27:58.329Z,16.00
2023-03-05T00:28:58.471Z,11.90
2023-03-05T00:29:58.155Z,12.20
2023-03-05T00:30:57.569Z,12.80
2023-03-05T00:31:57.518Z,13.90
2023-03-05T00:32:58.659Z,25.10
2023-03-05T00:33:57.445Z,26.30
2023-03-05T00:34:58.149Z,22.80
2023-03-05T00:35:57.611Z,18.90
2023-03-05T00:36:58.412Z,22.00
2023-03-05T00:37:57.437Z,21.60
2023-03-05T00:38:58.646Z,32.30
2023-03-05T00:39:57.464Z,29.20
2023-03-05T00:40:58.150Z,21.80
2023-03-05T00:41:58.070Z,23.10
2023-03-05T00:42:57.638Z,15.10
2023-03-05T00:43:58.452Z,22.30
2023-03-05T00:44:58.169Z,25.00
2023-03-05T00:45:57.423Z,22.00
2023-03-05T00:46:58.158Z,21.10
2023-03-05T00:47:57.411Z,22.80
2023-03-05T00:48:57.334Z,27.60
2023-03-05T00:50:03.800Z,19.40
2023-03-05T00:50:57.753Z,22.30
2023-03-05T00:52:03.767Z,24.70
2023-03-05T00:52:58.196Z,25.40
2023-03-05T00:53:57.272Z,26.90
2023-03-05T00:54:58.200Z,23.00
2023-03-05T00:55:57.351Z,31.40
2023-03-05T00:56:58.205Z,32.80
2023-03-05T00:57:58.107Z,25.20
2023-03-05T00:58:58.291Z,21.00
2023-03-05T00:59:57.228Z,25.90
2023-03-05T01:00:57.175Z,26.20
2023-03-05T01:01:57.227Z,26.90
2023-03-05T01:02:57.151Z,23.90
2023-03-05T01:03:57.179Z,23.30
2023-03-05T01:04:57.146Z,24.50
2023-03-05T01:05:57.133Z,21.40
2023-03-05T01:06:57.110Z,24.60
2023-03-05T01:07:57.120Z,26.80
2023-03-05T01:08:57.106Z,27.30
2023-03-05T01:09:57.381Z,25.40
2023-03-05T01:10:57.678Z,26.10
2023-03-05T01:11:57.058Z,23.80
2023-03-05T01:12:57.045Z,20.30
2023-03-05T01:13:57.073Z,19.60
2023-03-05T01:14:57.017Z,24.00
2023-03-05T01:15:57.090Z,24.10
2023-03-05T01:16:57.018Z,29.40
2023-03-05T01:17:57.038Z,24.80
2023-03-05T01:18:57.000Z,23.40
2023-03-05T01:19:56.973Z,24.70
2023-03-05T01:20:56.977Z,21.70
2023-03-05T01:21:56.956Z,24.80
2023-03-05T01:22:56.938Z,25.20
2023-03-05T01:23:56.971Z,29.50
2023-03-05T01:24:56.913Z,30.80
2023-03-05T01:25:56.905Z,34.70
2023-03-05T01:26:56.900Z,35.00
2023-03-05T01:27:56.893Z,24.90
2023-03-05T01:28:56.979Z,27.30
2023-03-05T01:29:56.867Z,25.10
2023-03-05T01:30:56.869Z,23.30
2023-03-05T01:31:56.852Z,27.00
2023-03-05T01:32:56.828Z,31.60
2023-03-05T01:33:56.876Z,34.60
2023-03-05T01:34:56.843Z,35.60
2023-03-05T01:35:56.856Z,36.10
2023-03-05T01:36:57.072Z,29.70
2023-03-05T01:37:56.790Z,34.80
2023-03-05T01:38:56.811Z,21.30
2023-03-05T01:39:56.785Z,31.90
2023-03-05T01:40:56.792Z,34.10
2023-03-05T01:41:56.754Z,39.50
2023-03-05T01:42:56.748Z,39.00
2023-03-05T01:44:04.590Z,42.20
2023-03-05T01:44:56.734Z,43.80
2023-03-05T01:45:56.799Z,42.40
2023-03-05T01:46:56.728Z,39.80
2023-03-05T01:47:56.697Z,44.90
2023-03-05T01:48:56.715Z,44.10
2023-03-05T01:49:56.701Z,52.50
2023-03-05T01:50:56.652Z,40.20
2023-03-05T01:51:56.663Z,40.80
2023-03-05T01:52:56.646Z,41.50
2023-03-05T01:53:56.668Z,33.20
2023-03-05T01:54:56.615Z,31.90
2023-03-05T01:55:56.604Z,42.90
2023-03-05T01:56:56.593Z,34.50
2023-03-05T01:57:56.589Z,33.30
2023-03-05T01:58:56.597Z,35.30
2023-03-05T01:59:56.587Z,38.60
2023-03-05T02:00:56.605Z,42.50
2023-03-05T02:01:56.594Z,41.30
2023-03-05T02:02:56.538Z,48.90
2023-03-05T02:03:56.602Z,46.90
2023-03-05T02:04:56.548Z,51.80
2023-03-05T02:05:56.538Z,48.50
2023-03-05T02:06:56.507Z,47.00
2023-03-05T02:07:56.485Z,46.70
2023-03-05T02:08:56.498Z,48.10
2023-03-05T02:09:56.491Z,35.90
2023-03-05T02:10:56.568Z,43.40
2023-03-05T02:11:56.454Z,45.50
2023-03-05T02:12:56.431Z,44.30
2023-03-05T02:13:56.440Z,45.60
2023-03-05T02:14:56.437Z,45.40
2023-03-05T02:15:56.404Z,41.90
2023-03-05T02:16:56.482Z,39.90
2023-03-05T02:17:56.393Z,50.20
2023-03-05T02:18:56.387Z,37.40
2023-03-05T02:19:56.416Z,42.30
2023-03-05T02:20:56.419Z,47.60
2023-03-05T02:21:56.350Z,51.20
2023-03-05T02:22:56.379Z,58.00
2023-03-05T02:23:56.330Z,44.00
2023-03-05T02:24:56.343Z,46.20
2023-03-05T02:25:56.323Z,43.30
2023-03-05T02:26:56.290Z,46.10
2023-03-05T02:27:56.308Z,49.50
2023-03-05T02:28:56.276Z,54.00
2023-03-05T02:29:56.301Z,36.60
2023-03-05T02:30:56.270Z,43.00
2023-03-05T02:31:56.282Z,43.80
2023-03-05T02:32:56.264Z,41.70
2023-03-05T02:33:56.247Z,52.40
2023-03-05T02:34:56.252Z,48.20
2023-03-05T02:35:56.231Z,43.40
2023-03-05T02:36:56.205Z,34.50
2023-03-05T02:37:56.205Z,49.80
2023-03-05T02:38:56.172Z,50.50
2023-03-05T02:39:56.198Z,40.10
2023-03-05T02:40:56.158Z,45.70
2023-03-05T02:41:56.148Z,57.60
2023-03-05T02:42:56.154Z,55.70
2023-03-05T02:43:56.128Z,50.40
2023-03-05T02:44:56.141Z,53.90
2023-03-05T02:45:56.190Z,51.50
2023-03-05T02:46:56.103Z,47.80
2023-03-05T02:47:56.093Z,45.50
2023-03-05T02:48:56.159Z,37.40
2023-03-05T02:49:56.162Z,50.40
2023-03-05T02:50:56.063Z,48.20
2023-03-05T02:51:56.058Z,48.30
2023-03-05T02:52:56.044Z,48.90
2023-03-05T02:53:56.041Z,39.80
2023-03-05T02:54:56.015Z,48.10
2023-03-05T02:55:56.039Z,50.80
2023-03-05T02:56:56.008Z,60.30
2023-03-05T02:57:56.003Z,54.60
2023-03-05T02:58:55.976Z,55.20
2023-03-05T02:59:56.055Z,46.30
2023-03-05T03:00:56.025Z,59.30
2023-03-05T03:01:55.957Z,65.10
2023-03-05T03:02:56.009Z,49.00
2023-03-05T03:03:55.974Z,47.70
2023-03-05T03:04:55.924Z,44.60
2023-03-05T03:05:55.933Z,59.80
2023-03-05T03:06:55.895Z,58.20
2023-03-05T03:07:55.899Z,41.00
2023-03-05T03:08:55.879Z,38.20
2023-03-05T03:09:55.870Z,49.90
2023-03-05T03:10:55.885Z,63.10
2023-03-05T03:11:55.846Z,60.70
2023-03-05T03:12:55.837Z,63.00
2023-03-05T03:13:55.838Z,62.80
2023-03-05T03:14:55.820Z,68.80
2023-03-05T03:15:55.840Z,55.80
2023-03-05T03:16:55.826Z,60.90
2023-03-05T03:17:55.798Z,60.80
2023-03-05T03:18:55.806Z,62.30
2023-03-05T03:19:55.770Z,62.20
2023-03-05T03:20:55.787Z,65.50
2023-03-05T03:21:55.782Z,67.40
2023-03-05T03:22:55.771Z,68.70
2023-03-05T03:23:55.736Z,58.60
2023-03-05T03:24:55.724Z,55.40
2023-03-05T03:25:55.744Z,46.00
2023-03-05T03:26:55.705Z,54.20
2023-03-05T03:27:55.703Z,49.70
2023-03-05T03:28:55.685Z,51.00
2023-03-05T03:29:55.720Z,61.90
2023-03-05T03:30:55.694Z,55.00
2023-03-05T03:31:55.668Z,52.20
2023-03-05T03:32:55.654Z,40.40
2023-03-05T03:33:55.670Z,41.60
2023-03-05T03:34:55.621Z,56.40
2023-03-05T03:35:55.715Z,56.20
2023-03-05T03:36:55.617Z,66.70
2023-03-05T03:37:55.598Z,53.30
2023-03-05T03:38:55.586Z,44.80
2023-03-05T03:39:55.605Z,59.40
2023-03-05T03:40:55.591Z,57.60
2023-03-05T03:41:55.570Z,53.00
2023-03-05T03:42:55.545Z,45.30
2023-03-05T03:43:55.617Z,60.20
2023-03-05T03:44:55.551Z,51.70
2023-03-05T03:45:55.579Z,54.60
2023-03-05T03:46:55.523Z,51.10
2023-03-05T03:47:55.506Z,61.20
2023-03-05T03:48:55.480Z,49.40
2023-03-05T03:49:55.483Z,52.30
2023-03-05T03:50:55.485Z,67.50
2023-03-05T03:51:55.513Z,66.10
2023-03-05T03:52:55.450Z,70.50
2023-03-05T03:53:55.463Z,66.00
2023-03-05T03:54:55.429Z,51.20
2023-03-05T03:55:55.447Z,40.40
2023-03-05T03:56:55.413Z,54.50
2023-03-05T03:57:55.394Z,55.70
2023-03-05T03:58:55.394Z,52.90
2023-03-05T03:59:55.391Z,62.60
2023-03-05T04:00:55.389Z,60.60
2023-03-05T04:01:55.394Z,49.80
2023-03-05T04:02:55.388Z,55.00
2023-03-05T04:03:55.384Z,58.40
2023-03-05T04:04:55.332Z,53.60
2023-03-05T04:05:55.351Z,44.40
2023-03-05T04:06:55.321Z,39.70
2023-03-05T04:07:55.300Z,44.10
2023-03-05T04:08:55.289Z,47.90
2023-03-05T04:09:55.289Z,47.50
2023-03-05T04:10:55.266Z,52.70
2023-03-05T04:11:55.281Z,47.20
2023-03-05T04:12:55.258Z,63.70
2023-03-05T04:13:55.236Z,56.20
2023-03-05T04:14:55.225Z,49.30
2023-03-05T04:15:55.295Z,45.80
2023-03-05T04:16:55.228Z,50.20
2023-03-05T04:17:55.232Z,46.40
2023-03-05T04:18:55.185Z,39.60
2023-03-05T04:19:55.202Z,35.20
2023-03-05T04:20:55.173Z,39.00
2023-03-05T04:21:55.187Z,31.70
2023-03-05T04:22:55.146Z,36.10
2023-03-05T04:23:55.159Z,40.50
2023-03-05T04:24:55.146Z,45.90
2023-03-05T04:25:55.126Z,32.60
2023-03-05T04:26:55.141Z,35.70
2023-03-05T04:27:55.112Z,40.80
2023-03-05T04:28:55.081Z,36.50
2023-03-05T04:29:55.077Z,33.70
2023-03-05T04:30:55.153Z,40.80
2023-03-05T04:31:55.083Z,45.20
2023-03-05T04:32:55.046Z,32.90
2023-03-05T04:33:55.042Z,32.70
2023-03-05T04:34:55.021Z,31.60
2023-03-05T04:35:55.056Z,43.10
2023-03-05T04:36:55.044Z,35.90
2023-03-05T04:37:54.993Z,42.10
2023-03-05T04:38:54.977Z,47.10
2023-03-05T04:39:54.974Z,54.20
2023-03-05T04:40:54.967Z,52.70
2023-03-05T04:41:54.986Z,53.10
2023-03-05T04:42:54.946Z,45.30
2023-03-05T04:43:54.932Z,34.40
2023-03-05T04:44:54.978Z,33.00
2023-03-05T04:45:54.918Z,29.10
2023-03-05T04:46:54.915Z,27.80
2023-03-05T04:48:01.383Z,30.50
2023-03-05T04:48:54.877Z,28.90
2023-03-05T04:49:54.878Z,40.30
2023-03-05T04:50:54.900Z,41.00
2023-03-05T04:51:54.871Z,32.70
2023-03-05T04:52:54.846Z,50.00
2023-03-05T04:53:54.835Z,51.90
2023-03-05T04:54:54.822Z,51.40
2023-03-05T04:55:54.831Z,59.70
2023-03-05T04:56:54.825Z,51.20
2023-03-05T04:57:54.789Z,49.20
2023-03-05T04:58:54.777Z,42.50
2023-03-05T04:59:54.781Z,42.40
2023-03-05T05:00:54.745Z,51.70
2023-03-05T05:01:54.818Z,58.00
2023-03-05T05:02:54.834Z,63.70
2023-03-05T05:03:54.745Z,51.40
2023-03-05T05:04:54.713Z,62.00
2023-03-05T05:05:54.707Z,46.40
2023-03-05T05:06:54.713Z,48.10
2023-03-05T05:07:54.711Z,53.30
2023-03-05T05:08:54.672Z,40.20
2023-03-05T05:09:54.713Z,41.40
2023-03-05T05:10:54.657Z,42.70
2023-03-05T05:11:54.688Z,46.60
2023-03-05T05:12:54.651Z,62.90
2023-03-05T05:13:54.629Z,50.60
2023-03-05T05:14:54.632Z,51.70
2023-03-05T05:15:54.616Z,51.70
2023-03-05T05:16:54.610Z,65.90
2023-03-05T05:17:54.597Z,55.10
2023-03-05T05:18:54.571Z,50.00
2023-03-05T05:19:54.592Z,49.60
2023-03-05T05:20:54.575Z,49.30
2023-03-05T05:21:54.578Z,52.60
2023-03-05T05:22:54.556Z,55.20
2023-03-05T05:23:54.533Z,52.90
2023-03-05T05:24:54.513Z,44.10
2023-03-05T05:25:54.505Z,32.50
2023-03-05T05:26:54.540Z,48.90
2023-03-05T05:27:54.484Z,46.30
2023-03-05T05:28:54.483Z,43.40
2023-03-05T05:29:54.472Z,48.00
2023-03-05T05:30:54.468Z,34.30
2023-03-05T05:31:54.575Z,36.50
2023-03-05T05:32:54.470Z,35.80
2023-03-05T05:33:54.452Z,39.00
2023-03-05T05:34:54.422Z,33.70
2023-03-05T05:35:54.475Z,34.50
2023-03-05T05:36:54.413Z,38.90
2023-03-05T05:37:54.413Z,45.70
2023-03-05T05:38:54.384Z,39.40
2023-03-05T05:39:54.392Z,33.70
2023-03-05T05:40:54.356Z,30.50
2023-03-05T05:41:54.356Z,38.30
2023-03-05T05:42:54.395Z,47.20
2023-03-05T05:43:54.329Z,46.00
2023-03-05T05:44:54.322Z,40.20
2023-03-05T05:45:54.426Z,41.70
2023-03-05T05:46:54.243Z,52.60
2023-03-05T05:47:54.289Z,47.20
2023-03-05T05:48:54.252Z,48.90
2023-03-05T05:49:54.225Z,40.80
2023-03-05T05:50:54.203Z,49.20
2023-03-05T05:51:54.205Z,41.10
2023-03-05T05:52:54.219Z,34.60
2023-03-05T05:53:54.244Z,43.10
2023-03-05T05:54:54.182Z,44.90
2023-03-05T05:55:54.168Z,52.30
2023-03-05T05:56:54.203Z,52.70
2023-03-05T05:57:54.189Z,44.80
2023-03-05T05:58:54.131Z,47.40
2023-03-05T05:59:54.120Z,41.20
2023-03-05T06:00:54.121Z,46.90
2023-03-05T06:01:54.119Z,51.40
2023-03-05T06:02:54.218Z,53.10
2023-03-05T06:03:54.094Z,52.50
2023-03-05T06:04:54.064Z,36.00
2023-03-05T06:06:01.573Z,52.50
2023-03-05T06:07:00.587Z,52.30
2023-03-05T06:07:54.059Z,52.30
2023-03-05T06:08:54.031Z,46.30
2023-03-05T06:09:54.019Z,48.40
2023-03-05T06:10:54.006Z,52.70
2023-03-05T06:11:54.019Z,37.30
2023-03-05T06:12:54.000Z,40.00
2023-03-05T06:13:53.981Z,44.40
2023-03-05T06:14:53.978Z,47.90
2023-03-05T06:15:53.970Z,50.30
2023-03-05T06:16:53.959Z,47.90
2023-03-05T06:17:53.995Z,54.90
2023-03-05T06:18:53.932Z,52.30
2023-03-05T06:19:53.950Z,66.90
2023-03-05T06:20:53.903Z,68.10
2023-03-05T06:21:53.897Z,61.10
2023-03-05T06:22:53.904Z,52.90
2023-03-05T06:23:53.881Z,55.60
2023-03-05T06:24:53.856Z,57.30
2023-03-05T06:25:53.854Z,57.80
2023-03-05T06:26:53.839Z,55.60
2023-03-05T06:27:53.880Z,53.70
2023-03-05T06:28:53.826Z,57.30
2023-03-05T06:29:53.815Z,55.70
2023-03-05T06:30:53.860Z,52.40
2023-03-05T06:31:53.796Z,64.80
2023-03-05T06:32:53.822Z,62.80
2023-03-05T06:33:53.773Z,65.50
2023-03-05T06:34:53.769Z,54.70
2023-03-05T06:35:53.794Z,60.90
2023-03-05T06:36:53.738Z,83.20
2023-03-05T06:37:53.792Z,68.80
2023-03-05T06:38:53.729Z,69.90
2023-03-05T06:39:53.712Z,66.90
2023-03-05T06:40:53.713Z,75.40
2023-03-05T06:41:53.698Z,83.60
2023-03-05T06:42:53.705Z,77.30
2023-03-05T06:43:53.678Z,83.70
2023-03-05T06:44:53.674Z,96.20
2023-03-05T06:45:53.681Z,100.90
2023-03-05T06:46:53.664Z,86.90
2023-03-05T06:47:53.667Z,99.80
2023-03-05T06:48:53.629Z,104.30
2023-03-05T06:49:53.626Z,105.70
2023-03-05T06:50:53.601Z,109.20
2023-03-05T06:51:53.598Z,103.10
2023-03-05T06:52:53.618Z,83.90
2023-03-05T06:53:53.618Z,93.30
2023-03-05T06:54:53.556Z,103.70
2023-03-05T06:55:53.557Z,111.60
2023-03-05T06:56:53.545Z,118.20
2023-03-05T06:57:53.552Z,105.50
2023-03-05T06:58:53.557Z,106.10
2023-03-05T06:59:53.552Z,110.20
2023-03-05T07:00:53.549Z,113.10
2023-03-05T07:01:53.488Z,111.60
2023-03-05T07:02:53.479Z,105.90
2023-03-05T07:03:53.509Z,107.40
2023-03-05T07:04:53.484Z,115.90
2023-03-05T07:05:53.459Z,104.60
2023-03-05T07:06:53.439Z,109.50
2023-03-05T07:07:53.428Z,107.60
2023-03-05T07:08:53.432Z,115.40
2023-03-05T07:09:53.411Z,121.90
2023-03-05T07:10:53.395Z,120.80
2023-03-05T07:11:53.399Z,116.20
2023-03-05T07:12:53.374Z,114.10
2023-03-05T07:13:53.392Z,115.50
2023-03-05T07:14:53.347Z,107.70
2023-03-05T07:15:53.445Z,102.60
2023-03-05T07:16:53.371Z,98.00
2023-03-05T07:17:53.352Z,104.00
2023-03-05T07:18:53.331Z,103.20
2023-03-05T07:19:53.329Z,112.90
2023-03-05T07:20:53.308Z,106.10
2023-03-05T07:21:53.281Z,97.60
2023-03-05T07:22:53.336Z,103.30
2023-03-05T07:23:53.311Z,117.50
2023-03-05T07:24:53.247Z,119.90
2023-03-05T07:25:53.248Z,110.30
2023-03-05T07:26:53.255Z,109.80
2023-03-05T07:27:53.215Z,98.10
2023-03-05T07:28:53.244Z,113.50
2023-03-05T07:29:53.222Z,118.90
2023-03-05T07:30:53.221Z,113.80
2023-03-05T07:31:53.185Z,127.90
2023-03-05T07:32:53.174Z,122.30
2023-03-05T07:33:53.209Z,112.10
2023-03-05T07:34:53.236Z,96.60
2023-03-05T07:35:53.197Z,100.60
2023-03-05T07:36:53.235Z,115.90
2023-03-05T07:37:53.138Z,116.30
2023-03-05T07:38:53.129Z,110.90
2023-03-05T07:39:53.101Z,115.10
2023-03-05T07:40:53.124Z,118.70
2023-03-05T07:41:53.105Z,123.70
2023-03-05T07:42:53.092Z,121.00
2023-03-05T07:43:53.131Z,122.00
2023-03-05T07:44:53.054Z,112.50
2023-03-05T07:45:53.152Z,105.80
2023-03-05T07:46:53.045Z,113.20
2023-03-05T07:47:53.015Z,121.60
2023-03-05T07:48:53.069Z,129.10
2023-03-05T07:49:53.001Z,112.70
2023-03-05T07:50:53.010Z,119.40
2023-03-05T07:51:52.986Z,121.30
2023-03-05T07:52:52.995Z,125.80
2023-03-05T07:53:53.004Z,116.00
2023-03-05T07:54:52.989Z,114.70
2023-03-05T07:55:52.940Z,104.30
2023-03-05T07:56:52.943Z,94.00
2023-03-05T07:57:52.941Z,104.90
2023-03-05T07:58:52.950Z,100.60
2023-03-05T07:59:52.909Z,94.10
2023-03-05T08:00:52.913Z,94.90
2023-03-05T08:01:52.890Z,93.00
2023-03-05T08:02:52.958Z,90.00
2023-03-05T08:03:52.959Z,86.80
2023-03-05T08:04:52.859Z,98.00
2023-03-05T08:05:52.849Z,98.90
2023-03-05T08:06:52.874Z,102.50
2023-03-05T08:07:52.831Z,108.00
2023-03-05T08:08:52.835Z,108.50
2023-03-05T08:09:52.845Z,98.60
2023-03-05T08:10:52.796Z,99.90
2023-03-05T08:11:52.778Z,100.80
2023-03-05T08:12:52.789Z,109.00
2023-03-05T08:13:52.793Z,68.20
2023-03-05T08:14:52.757Z,83.40
2023-03-05T08:15:52.772Z,92.10
2023-03-05T08:16:52.747Z,90.10
2023-03-05T08:17:52.721Z,78.70
2023-03-05T08:18:52.722Z,94.80
2023-03-05T08:19:52.740Z,108.80
2023-03-05T08:20:52.698Z,118.30
2023-03-05T08:21:54.090Z,102.20
2023-03-05T08:22:52.679Z,108.70
2023-03-05T08:23:52.740Z,92.80
2023-03-05T08:24:52.676Z,87.60
2023-03-05T08:25:52.737Z,90.20
2023-03-05T08:26:52.635Z,80.10
2023-03-05T08:27:52.612Z,84.70
2023-03-05T08:28:52.626Z,98.90
2023-03-05T08:29:52.676Z,92.80
2023-03-05T08:30:52.622Z,102.20
2023-03-05T08:31:52.588Z,101.00
2023-03-05T08:32:52.640Z,97.90
2023-03-05T08:33:52.572Z,109.80
2023-03-05T08:34:52.574Z,105.80
2023-03-05T08:35:52.570Z,110.10
2023-03-05T08:36:52.544Z,112.30
2023-03-05T08:37:52.517Z,108.80
2023-03-05T08:38:52.510Z,104.60
2023-03-05T08:39:52.549Z,103.10
2023-03-05T08:40:52.492Z,91.90
2023-03-05T08:41:52.503Z,90.60
2023-03-05T08:42:52.514Z,103.60
2023-03-05T08:43:52.498Z,96.40
2023-03-05T08:44:52.474Z,83.80
2023-03-05T08:45:52.458Z,88.10
2023-03-05T08:46:52.535Z,79.70
2023-03-05T08:47:52.433Z,73.60
2023-03-05T08:48:52.464Z,82.60
2023-03-05T08:49:52.429Z,79.40
2023-03-05T08:50:52.400Z,72.40
2023-03-05T08:51:52.604Z,90.30
2023-03-05T08:52:52.369Z,83.30
2023-03-05T08:53:52.377Z,91.90
2023-03-05T08:54:52.404Z,80.90
2023-03-05T08:55:52.357Z,76.20
2023-03-05T08:56:52.342Z,103.50
2023-03-05T08:57:52.478Z,105.30
2023-03-05T08:58:52.317Z,107.20
2023-03-05T08:59:52.345Z,107.80
2023-03-05T09:00:52.495Z,102.60
2023-03-05T09:01:52.372Z,80.60
2023-03-05T09:02:52.369Z,83.10
2023-03-05T09:03:52.293Z,71.30
2023-03-05T09:04:52.317Z,67.70
2023-03-05T09:05:52.299Z,68.20
2023-03-05T09:06:52.240Z,69.50
2023-03-05T09:07:52.224Z,80.30
2023-03-05T09:08:52.253Z,68.30
2023-03-05T09:09:52.224Z,59.10
2023-03-05T09:10:52.247Z,61.90
2023-03-05T09:11:52.192Z,69.50
2023-03-05T09:12:52.170Z,74.00
2023-03-05T09:13:52.177Z,64.30
2023-03-05T09:14:52.182Z,65.80
2023-03-05T09:15:52.171Z,49.20
2023-03-05T09:16:52.148Z,54.50
2023-03-05T09:17:52.128Z,59.00
2023-03-05T09:18:52.120Z,48.20
2023-03-05T09:19:52.121Z,40.30
2023-03-05T09:20:52.106Z,47.20
2023-03-05T09:21:52.085Z,61.40
2023-03-05T09:22:52.677Z,67.30
2023-03-05T09:23:52.062Z,51.90
2023-03-05T09:24:52.251Z,51.00
2023-03-05T09:25:52.050Z,56.20
2023-03-05T09:26:52.037Z,52.40
2023-03-05T09:27:52.023Z,56.70
2023-03-05T09:28:52.016Z,52.90
2023-03-05T09:29:52.028Z,39.20
2023-03-05T09:30:52.005Z,38.60
2023-03-05T09:31:52.174Z,21.70
2023-03-05T09:32:51.989Z,20.10
2023-03-05T09:33:52.202Z,22.30
2023-03-05T09:34:51.984Z,30.40
2023-03-05T09:35:52.053Z,47.70
2023-03-05T09:36:51.952Z,36.40
2023-03-05T09:37:51.954Z,12.90
2023-03-05T09:38:51.920Z,13.50
2023-03-05T09:39:51.963Z,21.10
2023-03-05T09:40:51.981Z,26.80
2023-03-05T09:41:51.903Z,35.00
2023-03-05T09:42:51.901Z,28.90
2023-03-05T09:43:51.871Z,32.30
2023-03-05T09:44:51.886Z,36.70
2023-03-05T09:45:51.855Z,28.10
2023-03-05T09:46:51.850Z,20.10
2023-03-05T09:47:51.827Z,16.30
2023-03-05T09:48:51.815Z,21.40
2023-03-05T09:49:51.835Z,29.00
2023-03-05T09:50:51.844Z,29.90
2023-03-05T09:51:51.787Z,22.40
2023-03-05T09:52:51.792Z,10.10
2023-03-05T09:53:51.767Z,12.30
2023-03-05T09:54:51.760Z,9.60
2023-03-05T09:55:51.758Z,8.30
2023-03-05T09:56:51.738Z,6.40
2023-03-05T09:57:51.740Z,10.00
2023-03-05T09:58:51.717Z,7.80
2023-03-05T09:59:51.702Z,14.10
2023-03-05T10:00:51.717Z,14.50
2023-03-05T10:01:51.706Z,19.70
2023-03-05T10:02:51.747Z,17.70
2023-03-05T10:03:51.689Z,13.60
2023-03-05T10:04:51.676Z,17.40
2023-03-05T10:05:51.672Z,19.30
2023-03-05T10:06:51.635Z,19.20
2023-03-05T10:07:51.617Z,13.60
2023-03-05T10:08:51.622Z,11.10
2023-03-05T10:09:51.617Z,11.20
2023-03-05T10:10:51.623Z,3.20
2023-03-05T10:11:51.587Z,1.10
2023-03-05T10:12:51.579Z,0.80
2023-03-05T10:13:51.556Z,1.10
2023-03-05T10:14:51.564Z,1.30
2023-03-05T10:15:51.566Z,2.00
2023-03-05T10:16:51.576Z,2.20
2023-03-05T10:17:51.526Z,1.60
2023-03-05T10:18:51.520Z,2.00
2023-03-05T10:19:51.498Z,3.90
2023-03-05T10:20:51.530Z,3.60
2023-03-05T10:21:51.494Z,2.80
2023-03-05T10:22:51.508Z,3.20
2023-03-05T10:23:51.477Z,3.80
2023-03-05T10:24:51.481Z,4.30
2023-03-05T10:25:51.461Z,7.40
2023-03-05T10:26:51.470Z,10.70
2023-03-05T10:27:53.802Z,7.10
2023-03-05T10:28:51.438Z,6.10
2023-03-05T10:29:51.407Z,6.60
2023-03-05T10:30:51.420Z,9.00
2023-03-05T10:31:51.406Z,8.90
2023-03-05T10:32:57.877Z,8.50
2023-03-05T10:33:51.362Z,10.40
2023-03-05T10:34:51.373Z,19.60
2023-03-05T10:35:51.406Z,22.20
2023-03-05T10:36:51.355Z,22.10
2023-03-05T10:37:51.329Z,19.00
2023-03-05T10:38:51.325Z,30.80
2023-03-05T10:39:51.306Z,21.40
2023-03-05T10:40:51.346Z,27.90
2023-03-05T10:41:51.285Z,19.40
2023-03-05T10:42:51.286Z,19.20
2023-03-05T10:43:51.263Z,22.70
2023-03-05T10:44:51.262Z,19.90
2023-03-05T10:45:51.327Z,24.10
2023-03-05T10:46:51.241Z,22.90
2023-03-05T10:47:51.237Z,20.10
2023-03-05T10:48:51.215Z,25.00
2023-03-05T10:49:51.218Z,24.30
2023-03-05T10:50:51.231Z,38.40
2023-03-05T10:51:51.184Z,33.00
2023-03-05T10:52:51.178Z,27.90
2023-03-05T10:53:51.171Z,22.40
2023-03-05T10:54:51.165Z,35.90
2023-03-05T10:55:51.187Z,32.00
2023-03-05T10:56:51.160Z,34.50
2023-03-05T10:57:51.128Z,43.40
2023-03-05T10:58:51.119Z,55.10
2023-03-05T10:59:51.141Z,38.30
2023-03-05T11:00:51.116Z,23.60
2023-03-05T11:01:51.108Z,25.90
2023-03-05T11:02:51.122Z,20.50
2023-03-05T11:03:51.082Z,9.40
2023-03-05T11:04:51.073Z,9.80
2023-03-05T11:05:51.034Z,5.90
2023-03-05T11:06:51.077Z,8.80
2023-03-05T11:07:51.018Z,2.70
2023-03-05T11:08:52.177Z,1.60
2023-03-05T11:09:51.017Z,2.50
2023-03-05T11:10:50.986Z,3.90
2023-03-05T11:11:51.009Z,1.70
2023-03-05T11:12:50.972Z,1.40
2023-03-05T11:13:50.994Z,1.30
2023-03-05T11:14:51.661Z,1.10
2023-03-05T11:15:51.184Z,0.70
2023-03-05T11:16:52.778Z,0.60
2023-03-05T11:17:51.680Z,0.70
2023-03-05T11:18:54.050Z,0.30
2023-03-05T11:19:51.316Z,0.60
2023-03-05T11:20:51.337Z,0.60
2023-03-05T11:21:51.421Z,0.60
2023-03-05T11:22:53.661Z,0.70
2023-03-05T11:23:51.567Z,0.70
2023-03-05T11:24:50.892Z,0.60
2023-03-05T11:25:51.070Z,0.50
2023-03-05T11:26:50.886Z,0.40
2023-03-05T11:27:53.660Z,0.50
2023-03-05T11:28:50.804Z,0.90
2023-03-05T11:29:50.820Z,1.00
2023-03-05T11:30:53.229Z,0.60
2023-03-05T11:31:50.820Z,0.70
2023-03-05T11:32:50.772Z,0.80
2023-03-05T11:33:50.768Z,0.60
2023-03-05T11:34:50.741Z,0.30
2023-03-05T11:35:50.749Z,0.40
2023-03-05T11:36:51.153Z,0.40
2023-03-05T11:37:51.594Z,0.30
2023-03-05T11:38:52.925Z,0.30
2023-03-05T11:39:52.044Z,0.60
2023-03-05T11:40:53.556Z,0.40
2023-03-05T11:41:51.967Z,0.50
2023-03-05T11:42:51.092Z,0.50
2023-03-05T11:43:50.898Z,0.30
2023-03-05T11:44:50.930Z,0.60
2023-03-05T11:45:51.080Z,0.40
2023-03-05T11:46:50.913Z,0.40
2023-03-05T11:47:50.968Z,0.40
2023-03-05T11:48:51.297Z,0.60
2023-03-05T11:49:50.885Z,0.60
2023-03-05T11:50:50.803Z,0.40
2023-03-05T11:51:51.040Z,0.50
2023-03-05T11:52:50.757Z,0.20
2023-03-05T11:53:51.527Z,0.50
2023-03-05T11:54:50.707Z,0.40
2023-03-05T11:55:51.724Z,0.30
2023-03-05T11:56:51.322Z,0.70
2023-03-05T11:57:50.934Z,0.30
2023-03-05T11:58:50.877Z,0.20
2023-03-05T11:59:50.903Z,0.60
2023-03-05T12:00:50.549Z,0.30
2023-03-05T12:01:50.617Z,0.10
2023-03-05T12:02:50.647Z,0.50
2023-03-05T12:03:50.741Z,0.30
2023-03-05T12:04:50.647Z,0.70
2023-03-05T12:05:50.631Z,0.30
2023-03-05T12:06:50.522Z,0.30
2023-03-05T12:07:50.630Z,0.50
2023-03-05T12:08:50.601Z,0.60
2023-03-05T12:09:50.596Z,0.40
2023-03-05T12:10:53.160Z,0.20
2023-03-05T12:11:51.343Z,0.20
2023-03-05T12:12:50.517Z,0.40
2023-03-05T12:13:50.543Z,0.40
2023-03-05T12:14:50.607Z,0.20
2023-03-05T12:15:50.610Z,0.30
2023-03-05T12:16:50.446Z,0.40
2023-03-05T12:17:50.674Z,0.30
2023-03-05T12:18:50.438Z,0.40
2023-03-05T12:19:50.365Z,0.20
2023-03-05T12:20:50.391Z,0.30
2023-03-05T12:21:50.372Z,0.20
2023-03-05T12:22:51.374Z,0.40
2023-03-05T12:23:50.506Z,0.30
2023-03-05T12:24:50.419Z,0.60
2023-03-05T12:25:51.571Z,0.20
2023-03-05T12:26:50.429Z,0.10
2023-03-05T12:27:52.146Z,0.40
2023-03-05T12:28:50.390Z,0.20
2023-03-05T12:29:50.448Z,0.50
2023-03-05T12:30:50.529Z,0.30
2023-03-05T12:31:50.708Z,0.30
2023-03-05T12:32:50.931Z,0.40
2023-03-05T12:33:50.250Z,0.20
2023-03-05T12:34:50.262Z,0.20
2023-03-05T12:35:50.271Z,0.20
2023-03-05T12:36:50.265Z,0.30
2023-03-05T12:37:50.366Z,0.20
2023-03-05T12:38:50.432Z,0.30
2023-03-05T12:39:50.224Z,0.20
2023-03-05T12:40:53.052Z,0.40
2023-03-05T12:41:51.476Z,0.20
2023-03-05T12:42:50.315Z,0.20
2023-03-05T12:43:50.179Z,0.30
2023-03-05T12:44:50.342Z,0.50
2023-03-05T12:45:50.178Z,0.10
2023-03-05T12:46:50.485Z,0.20
2023-03-05T12:47:50.241Z,0.20
2023-03-05T12:48:50.320Z,0.30
2023-03-05T12:49:51.086Z,0.60
2023-03-05T12:50:50.132Z,0.40
2023-03-05T12:51:50.034Z,0.30
2023-03-05T12:52:50.789Z,0.30
2023-03-05T12:53:50.098Z,0.40
2023-03-05T12:54:50.117Z,0.40